Time;durP1;ratioP1;P1;durP2;ratioP2;P2;SDS_P1;SDS_P2;PMS_P1;PMS_P2;Temp;Humidity;BMP_temperature;BMP_pressure;BME280_temperature;BME280_humidity;BME280_pressure;Samples;Min_cycle;Max_cycle;Signal;HPM_P1;HPM_P2
2021/08/02 00:00:01;;;;;;;21.83;18.73;;;;;;;22.35;77.90;98767.13;129881;1093;23373;-61
2021/08/02 00:02:35;;;;;;;23.88;17.60;;;;;;;22.34;77.84;98771.06;129574;1096;114582;-62
2021/08/02 00:05:06;;;;;;;25.80;18.13;;;;;;;22.32;77.87;98776.97;129758;1095;22759;-61
2021/08/02 00:08:06;;;;;;;22.03;18.25;;;;;;;22.30;77.91;98779.28;129762;1096;22545;-61
2021/08/02 00:10:54;;;;;;;20.35;18.15;;;;;;;22.28;78.02;98778.02;129747;1096;22556;-63
2021/08/02 00:13:32;;;;;;;29.13;18.63;;;;;;;22.25;78.09;98767.62;129608;1095;22552;-63
2021/08/02 00:16:04;;;;;;;25.93;18.20;;;;;;;22.22;78.13;98761.61;129469;1095;114740;-64
2021/08/02 00:18:31;;;;;;;23.02;18.35;;;;;;;22.19;78.35;98759.56;129467;1096;22725;-63
2021/08/02 00:21:04;;;;;;;20.88;18.68;;;;;;;22.17;78.32;98775.75;129257;1096;114800;-64
2021/08/02 00:23:39;;;;;;;26.20;18.88;;;;;;;22.14;78.45;98776.45;129401;1096;22712;-64
2021/08/02 00:26:07;;;;;;;21.70;19.30;;;;;;;22.12;78.13;98770.45;129376;1096;22572;-63
2021/08/02 00:28:34;;;;;;;25.90;19.23;;;;;;;22.09;78.59;98767.56;129190;1096;113944;-62
2021/08/02 00:31:03;;;;;;;22.98;18.90;;;;;;;22.08;78.79;98754.84;129398;1095;23667;-62
2021/08/02 00:33:31;;;;;;;24.35;19.23;;;;;;;22.05;78.85;98744.48;129260;1095;113779;-63
2021/08/02 00:36:18;;;;;;;23.68;19.30;;;;;;;22.04;78.93;98732.58;129315;1096;22569;-61
2021/08/02 00:39:13;;;;;;;33.00;20.28;;;;;;;22.01;78.98;98727.72;129363;1093;114092;-62
2021/08/02 00:42:35;;;;;;;22.05;19.60;;;;;;;21.99;79.06;98726.42;129811;1093;22523;-59
2021/08/02 00:45:12;;;;;;;25.13;20.43;;;;;;;21.96;79.35;98721.58;129633;1093;115434;-60
2021/08/02 00:47:56;;;;;;;24.25;19.90;;;;;;;21.92;79.33;98713.17;129779;1093;22554;-59
2021/08/02 00:50:25;;;;;;;25.53;19.85;;;;;;;21.91;79.23;98710.75;129694;1093;114031;-59
2021/08/02 00:52:58;;;;;;;25.88;20.05;;;;;;;21.86;79.32;98707.06;129818;1092;22554;-59
2021/08/02 00:55:30;;;;;;;24.00;19.40;;;;;;;21.79;79.12;98697.72;129784;1093;23527;-59
2021/08/02 00:58:01;;;;;;;21.45;19.18;;;;;;;21.80;79.26;98708.45;129662;1093;114145;-59
2021/08/02 01:00:29;;;;;;;24.10;20.58;;;;;;;21.77;79.37;98700.06;129780;1092;22607;-59
2021/08/02 01:02:57;;;;;;;23.85;18.93;;;;;;;21.72;79.23;98703.07;129725;1092;114060;-59
2021/08/02 01:05:26;;;;;;;28.78;19.75;;;;;;;21.67;79.32;98697.77;129759;1092;22595;-59
2021/08/02 01:08:01;;;;;;;24.00;21.38;;;;;;;21.62;79.72;98692.48;129808;1092;22581;-59
2021/08/02 01:10:32;;;;;;;24.85;21.33;;;;;;;21.60;79.96;98686.48;129693;1093;114309;-60
2021/08/02 01:13:07;;;;;;;27.40;20.20;;;;;;;21.57;80.06;98684.40;129835;1092;22541;-59
2021/08/02 01:15:39;;;;;;;24.70;21.38;;;;;;;21.54;80.03;98680.36;129738;1093;114097;-59
2021/08/02 01:18:10;;;;;;;23.90;21.48;;;;;;;21.51;80.23;98675.52;129810;1092;23178;-59
2021/08/02 01:20:45;;;;;;;23.98;20.78;;;;;;;21.48;80.29;98663.19;129609;1093;114585;-59
2021/08/02 01:23:14;;;;;;;26.85;22.23;;;;;;;21.44;80.73;98658.69;129862;1093;23336;-59
2021/08/02 01:25:44;;;;;;;26.23;20.48;;;;;;;21.40;80.79;98672.42;129749;1093;22578;-59
2021/08/02 01:28:14;;;;;;;24.90;20.93;;;;;;;21.37;81.01;98681.44;129725;1093;114485;-59
2021/08/02 01:30:57;;;;;;;23.73;20.35;;;;;;;21.35;81.35;98682.97;129828;1092;22632;-59
2021/08/02 01:33:32;;;;;;;24.40;21.00;;;;;;;21.33;81.60;98676.96;129695;1093;114168;-59
2021/08/02 01:36:07;;;;;;;24.58;19.85;;;;;;;21.32;81.46;98670.61;129807;1093;22584;-59
2021/08/02 01:38:40;;;;;;;34.50;21.77;;;;;;;21.29;81.60;98649.14;129652;1092;114359;-59
2021/08/02 01:41:12;;;;;;;28.05;21.70;;;;;;;21.26;81.96;98647.06;129791;1093;22583;-59
2021/08/02 01:43:41;;;;;;;27.68;22.50;;;;;;;21.26;82.43;98638.75;129812;1093;22593;-60
2021/08/02 01:46:11;;;;;;;27.95;22.35;;;;;;;21.26;82.35;98627.66;129701;1093;114568;-59
2021/08/02 01:48:46;;;;;;;23.98;20.50;;;;;;;21.28;82.51;98646.71;129754;1093;22577;-58
2021/08/02 01:51:28;;;;;;;31.98;21.53;;;;;;;21.30;82.56;98650.75;129632;1093;115103;-59
2021/08/02 01:54:09;;;;;;;25.40;20.63;;;;;;;21.34;82.51;98643.36;129725;1095;22636;-59
2021/08/02 01:56:44;;;;;;;21.65;19.35;;;;;;;21.38;82.53;98658.11;129639;1095;114068;-59
2021/08/02 01:59:17;;;;;;;25.50;21.03;;;;;;;21.40;82.61;98646.67;129703;1095;23376;-59
2021/08/02 02:01:58;;;;;;;22.30;18.85;;;;;;;21.39;82.28;98634.78;129746;1096;22555;-59
2021/08/02 02:04:29;;;;;;;21.88;18.08;;;;;;;21.43;82.29;98635.70;129637;1096;113979;-59
2021/08/02 02:06:59;;;;;;;22.25;18.50;;;;;;;21.48;81.91;98637.44;129727;1096;23503;-59
2021/08/02 02:09:43;;;;;;;20.55;17.00;;;;;;;21.54;81.70;98630.47;129336;1095;113797;-59
2021/08/02 02:12:13;;;;;;;19.30;17.30;;;;;;;21.58;81.54;98628.61;129763;1095;22593;-59
2021/08/02 02:14:42;;;;;;;20.95;17.43;;;;;;;21.63;81.26;98631.14;129299;1096;114530;-58
2021/08/02 02:17:16;;;;;;;24.58;18.20;;;;;;;21.69;81.06;98634.45;129480;1096;22575;-59
2021/08/02 02:19:44;;;;;;;24.10;18.40;;;;;;;21.72;80.89;98631.78;129766;1096;22660;-59
2021/08/02 02:22:14;;;;;;;24.23;18.80;;;;;;;21.75;80.76;98642.17;129643;1095;114457;-59
2021/08/02 02:24:43;;;;;;;21.48;17.93;;;;;;;21.77;80.77;98634.31;129446;1093;22509;-59
2021/08/02 02:27:14;;;;;;;23.05;19.40;;;;;;;21.79;80.60;98633.94;129718;1092;114454;-59
2021/08/02 02:29:45;;;;;;;24.35;18.53;;;;;;;21.81;80.61;98634.39;129760;1093;22579;-59
2021/08/02 02:32:14;;;;;;;27.88;19.30;;;;;;;21.81;80.54;98632.42;129776;1093;22554;-59
2021/08/02 02:34:43;;;;;;;25.63;19.70;;;;;;;21.82;80.40;98641.55;129731;1093;113608;-59
2021/08/02 02:37:11;;;;;;;22.28;18.13;;;;;;;21.82;80.53;98653.45;129749;1093;22666;-59
2021/08/02 02:39:39;;;;;;;26.58;19.05;;;;;;;21.86;80.45;98664.66;129678;1093;113973;-57
2021/08/02 02:42:08;;;;;;;22.38;19.65;;;;;;;21.88;80.40;98662.34;129649;1093;22579;-58
2021/08/02 02:44:38;;;;;;;19.38;17.35;;;;;;;21.89;80.34;98669.50;129617;1093;114298;-57
2021/08/02 02:47:06;;;;;;;22.25;18.28;;;;;;;21.90;80.27;98665.56;129753;1093;22653;-57
2021/08/02 02:49:34;;;;;;;22.68;19.13;;;;;;;21.91;80.06;98664.41;129738;1094;22638;-58
2021/08/02 02:52:03;;;;;;;24.05;17.85;;;;;;;21.92;79.96;98668.80;129636;1095;115700;-58
2021/08/02 02:54:32;;;;;;;24.53;18.03;;;;;;;21.93;79.90;98664.06;129749;1096;23490;-58
2021/08/02 02:57:00;;;;;;;22.33;17.73;;;;;;;21.92;79.93;98671.58;129682;1095;113932;-58
2021/08/02 02:59:28;;;;;;;21.08;17.48;;;;;;;21.91;79.78;98664.41;129714;1094;22625;-60
2021/08/02 03:01:57;;;;;;;29.48;18.28;;;;;;;21.92;79.83;98673.54;129744;1093;23324;-58
2021/08/02 03:04:28;;;;;;;21.10;16.33;;;;;;;21.92;79.90;98681.86;129596;1096;114265;-58
2021/08/02 03:06:56;;;;;;;19.30;17.33;;;;;;;21.92;80.13;98687.41;129380;1096;23262;-58
2021/08/02 03:09:24;;;;;;;22.28;17.50;;;;;;;21.92;79.99;98690.98;129262;1096;114477;-58
2021/08/02 03:12:08;;;;;;;20.75;15.83;;;;;;;21.94;79.94;98696.16;129362;1096;23328;-58
2021/08/02 03:14:37;;;;;;;18.93;16.30;;;;;;;21.96;79.86;98691.88;129175;1096;114547;-58
2021/08/02 03:17:07;;;;;;;19.05;15.53;;;;;;;21.97;79.83;98693.49;129391;1096;22568;-58
2021/08/02 03:19:35;;;;;;;19.80;16.73;;;;;;;22.00;79.81;98694.78;129429;1096;22545;-58
2021/08/02 03:22:19;;;;;;;20.03;16.15;;;;;;;22.02;79.76;98693.28;129245;1095;113852;-58
2021/08/02 03:24:47;;;;;;;23.88;17.58;;;;;;;22.05;79.83;98703.67;129342;1095;23154;-58
2021/08/02 03:27:29;;;;;;;22.48;17.63;;;;;;;22.06;79.70;98702.52;129306;1096;113839;-58
2021/08/02 03:30:02;;;;;;;20.13;15.85;;;;;;;22.09;79.74;98710.11;129404;1096;22692;-58
2021/08/02 03:32:31;;;;;;;21.77;16.55;;;;;;;22.13;79.74;98710.22;129184;1096;114351;-58
2021/08/02 03:35:04;;;;;;;17.45;15.35;;;;;;;22.18;79.66;98699.67;129413;1095;22573;-59
2021/08/02 03:37:31;;;;;;;18.75;15.65;;;;;;;22.24;79.66;98678.00;129698;1095;22578;-57
2021/08/02 03:39:59;;;;;;;20.10;16.60;;;;;;;22.30;79.45;98670.23;129624;1095;114120;-58
2021/08/02 03:42:26;;;;;;;19.60;15.70;;;;;;;22.36;79.35;98666.05;129418;1095;22602;-58
2021/08/02 03:44:54;;;;;;;18.35;16.45;;;;;;;22.42;79.28;98656.27;129639;1096;114304;-58
2021/08/02 03:47:22;;;;;;;18.40;15.58;;;;;;;22.48;78.91;98649.31;129997;1092;22565;-58
2021/08/02 03:49:49;;;;;;;16.90;15.20;;;;;;;22.54;78.71;98645.89;130044;1092;23310;-58
2021/08/02 03:52:17;;;;;;;17.15;14.83;;;;;;;22.62;78.45;98640.53;129933;1090;114592;-58
2021/08/02 03:54:47;;;;;;;17.15;14.23;;;;;;;22.70;78.22;98645.08;130113;1090;23345;-58
2021/08/02 03:57:15;;;;;;;17.85;14.88;;;;;;;22.77;77.98;98634.99;130031;1089;114228;-58
2021/08/02 03:59:42;;;;;;;17.75;14.55;;;;;;;22.84;77.92;98646.26;130110;1090;22609;-57
2021/08/02 04:02:10;;;;;;;22.03;13.95;;;;;;;22.93;77.32;98642.50;130100;1090;22559;-58
2021/08/02 04:04:38;;;;;;;18.58;14.40;;;;;;;23.02;77.23;98640.31;130030;1089;114210;-57
2021/08/02 04:07:05;;;;;;;20.05;13.08;;;;;;;23.10;76.84;98648.45;130097;1090;22618;-58
2021/08/02 04:09:33;;;;;;;18.18;14.35;;;;;;;23.19;76.60;98640.73;130031;1088;114126;-58
2021/08/02 04:12:00;;;;;;;17.13;13.30;;;;;;;23.30;76.29;98648.49;130123;1090;22614;-58
2021/08/02 04:14:28;;;;;;;19.53;14.33;;;;;;;23.39;75.61;98637.96;130002;1090;114560;-58
2021/08/02 04:16:55;;;;;;;15.55;13.33;;;;;;;23.46;75.08;98636.16;130113;1090;22672;-58
2021/08/02 04:19:30;;;;;;;19.63;13.65;;;;;;;23.49;74.60;98626.28;130126;1090;23419;-58
2021/08/02 04:21:59;;;;;;;16.18;14.48;;;;;;;23.48;74.67;98630.23;130036;1090;114002;-58
2021/08/02 04:24:27;;;;;;;15.20;13.25;;;;;;;23.45;74.61;98622.61;130088;1090;22573;-58
2021/08/02 04:26:56;;;;;;;19.35;14.93;;;;;;;23.42;74.46;98617.77;129969;1090;115393;-58
2021/08/02 04:29:23;;;;;;;21.00;15.15;;;;;;;23.37;74.67;98607.77;130111;1090;22618;-58
2021/08/02 04:31:52;;;;;;;19.95;14.63;;;;;;;23.33;74.36;98597.73;130109;1090;22597;-58
2021/08/02 04:34:19;;;;;;;17.33;13.88;;;;;;;23.28;74.60;98601.59;130033;1090;114491;-58
2021/08/02 04:36:47;;;;;;;17.53;14.10;;;;;;;23.24;75.04;98615.41;130108;1090;22561;-58
2021/08/02 04:39:15;;;;;;;20.60;14.83;;;;;;;23.22;74.89;98628.09;129730;1090;114171;-58
2021/08/02 04:41:42;;;;;;;18.40;14.17;;;;;;;23.19;75.21;98635.17;125420;1090;22796;-59
2021/08/02 04:44:10;;;;;;;19.93;15.45;;;;;;;23.16;75.25;98627.55;130093;1090;23855;-58
2021/08/02 04:46:38;;;;;;;18.00;14.73;;;;;;;23.12;75.38;98612.77;129985;1090;115058;-58
2021/08/02 04:49:05;;;;;;;16.48;14.15;;;;;;;23.11;75.47;98610.34;130121;1089;22631;-58
2021/08/02 04:51:33;;;;;;;15.90;14.40;;;;;;;23.10;75.88;98614.30;130030;1090;114726;-58
2021/08/02 04:54:00;;;;;;;21.75;15.33;;;;;;;23.10;75.93;98606.77;130133;1090;22566;-58
2021/08/02 04:56:28;;;;;;;16.13;14.35;;;;;;;23.12;76.19;98609.19;130014;1090;114184;-58
2021/08/02 04:58:55;;;;;;;18.23;15.25;;;;;;;23.11;75.88;98607.57;130133;1090;22581;-58
2021/08/02 05:01:23;;;;;;;19.80;15.45;;;;;;;23.10;75.82;98603.18;130131;1088;22541;-59
2021/08/02 05:03:50;;;;;;;18.48;15.63;;;;;;;23.07;76.05;98604.73;130017;1090;114158;-58
2021/08/02 05:06:18;;;;;;;20.90;16.70;;;;;;;23.06;75.92;98602.31;130107;1090;23428;-58
2021/08/02 05:08:48;;;;;;;20.38;16.90;;;;;;;23.05;76.08;98590.39;130035;1090;114054;-58
2021/08/02 05:11:16;;;;;;;18.90;15.80;;;;;;;23.05;76.26;98575.70;130154;1090;22616;-58
2021/08/02 05:14:03;;;;;;;21.30;16.58;;;;;;;23.04;76.17;98560.19;130116;1090;22574;-58
2021/08/02 05:16:31;;;;;;;20.40;16.13;;;;;;;23.03;76.18;98547.47;129990;1090;114498;-60
2021/08/02 05:18:59;;;;;;;24.18;18.40;;;;;;;23.01;76.76;98535.91;130090;1090;22518;-58
2021/08/02 05:21:27;;;;;;;21.85;17.35;;;;;;;22.98;77.09;98556.08;129980;1090;114188;-58
2021/08/02 05:23:55;;;;;;;23.43;18.25;;;;;;;22.95;76.92;98554.83;130171;1089;22642;-58
2021/08/02 05:26:34;;;;;;;23.00;19.15;;;;;;;22.89;77.37;98554.33;130045;1090;115930;-58
2021/08/02 05:29:02;;;;;;;25.28;18.10;;;;;;;22.87;77.22;98548.32;130104;1090;22545;-58
2021/08/02 05:31:30;;;;;;;19.93;17.78;;;;;;;22.85;77.55;98549.84;130101;1090;22640;-58
2021/08/02 05:33:57;;;;;;;20.52;17.45;;;;;;;22.83;77.44;98549.40;130016;1089;115012;-58
2021/08/02 05:36:25;;;;;;;19.60;16.55;;;;;;;22.83;77.58;98552.98;130106;1090;22703;-59
2021/08/02 05:38:52;;;;;;;21.57;16.60;;;;;;;22.84;77.39;98545.45;130004;1090;115037;-58
2021/08/02 05:41:20;;;;;;;19.43;17.40;;;;;;;22.84;77.52;98543.48;130130;1090;22543;-58
2021/08/02 05:43:47;;;;;;;22.65;17.50;;;;;;;22.85;77.71;98538.73;130093;1090;22550;-58
2021/08/02 05:46:15;;;;;;;22.60;17.93;;;;;;;22.87;77.90;98537.21;129998;1090;114353;-58
2021/08/02 05:48:43;;;;;;;21.23;17.95;;;;;;;22.93;77.86;98534.97;130080;1090;22663;-58
2021/08/02 05:51:11;;;;;;;20.48;17.50;;;;;;;23.00;77.91;98518.43;130006;1090;114005;-59
2021/08/02 05:53:39;;;;;;;19.58;17.25;;;;;;;23.07;77.67;98523.34;130120;1089;22582;-58
2021/08/02 05:56:07;;;;;;;28.68;17.50;;;;;;;23.15;76.99;98513.98;130114;1090;23792;-58
2021/08/02 05:58:34;;;;;;;19.95;17.70;;;;;;;23.20;76.92;98519.25;130013;1089;114266;-58
2021/08/02 06:01:02;;;;;;;21.23;16.73;;;;;;;23.26;76.66;98526.11;130093;1089;22553;-58
2021/08/02 06:03:29;;;;;;;20.90;18.33;;;;;;;23.33;76.98;98531.02;129961;1090;114007;-58
2021/08/02 06:05:58;;;;;;;18.53;16.53;;;;;;;23.41;76.67;98529.98;130102;1090;22542;-58
2021/08/02 06:08:26;;;;;;;19.30;16.10;;;;;;;23.48;76.12;98532.91;130057;1090;114098;-59
2021/08/02 06:10:54;;;;;;;20.18;15.98;;;;;;;23.56;75.77;98534.68;130111;1090;22619;-58
2021/08/02 06:13:21;;;;;;;22.80;16.45;;;;;;;23.62;76.03;98538.78;130123;1090;22576;-58
2021/08/02 06:15:50;;;;;;;21.08;16.20;;;;;;;23.69;75.83;98541.68;130025;1090;114382;-59
2021/08/02 06:18:19;;;;;;;20.58;15.55;;;;;;;23.76;75.54;98543.80;130122;1090;23435;-59
2021/08/02 06:20:46;;;;;;;19.40;16.18;;;;;;;23.83;75.44;98541.94;130004;1090;114743;-58
2021/08/02 06:23:14;;;;;;;16.60;14.98;;;;;;;23.92;74.69;98544.50;130113;1090;22529;-58
2021/08/02 06:25:42;;;;;;;20.80;16.30;;;;;;;24.05;75.34;98540.36;130111;1089;23022;-58
2021/08/02 06:28:10;;;;;;;21.30;16.38;;;;;;;24.20;75.16;98541.41;130003;1090;114702;-58
2021/08/02 06:30:37;;;;;;;22.83;15.83;;;;;;;24.35;74.57;98532.15;130116;1089;23407;-58
2021/08/02 06:33:05;;;;;;;19.15;15.45;;;;;;;24.52;74.31;98539.17;129986;1089;114331;-58
2021/08/02 06:35:35;;;;;;;20.88;15.15;;;;;;;24.63;73.14;98540.14;130084;1089;22581;-58
2021/08/02 06:38:03;;;;;;;20.85;14.85;;;;;;;24.73;72.80;98533.91;130119;1089;22578;-58
2021/08/02 06:40:31;;;;;;;17.85;15.23;;;;;;;24.80;72.81;98530.44;130032;1089;115934;-58
2021/08/02 06:42:58;;;;;;;15.95;13.08;;;;;;;24.86;72.17;98540.86;130098;1089;22571;-59
2021/08/02 06:45:26;;;;;;;15.93;14.15;;;;;;;24.92;71.97;98527.42;130068;1089;114517;-59
2021/08/02 06:47:56;;;;;;;17.30;13.73;;;;;;;25.00;71.71;98529.14;130092;1090;22704;-58
2021/08/02 06:50:24;;;;;;;17.70;13.50;;;;;;;25.10;71.28;98522.12;130004;1090;114253;-59
2021/08/02 06:52:52;;;;;;;14.90;13.20;;;;;;;25.23;71.20;98520.69;130137;1090;22644;-59
2021/08/02 06:55:20;;;;;;;22.20;13.53;;;;;;;25.39;70.96;98524.08;130081;1090;22615;-59
2021/08/02 06:57:47;;;;;;;14.68;13.15;;;;;;;25.52;70.59;98528.20;130002;1090;114152;-58
2021/08/02 07:00:15;;;;;;;18.53;12.93;;;;;;;25.68;69.94;98514.06;130076;1089;22608;-59
2021/08/02 07:02:43;;;;;;;20.50;12.65;;;;;;;25.82;69.87;98513.41;130004;1090;114344;-58
2021/08/02 07:05:11;;;;;;;16.68;11.95;;;;;;;25.98;69.18;98519.52;130148;1089;22549;-58
2021/08/02 07:07:39;;;;;;;15.75;11.88;;;;;;;26.11;68.10;98509.69;130145;1089;22533;-58
2021/08/02 07:10:07;;;;;;;20.13;12.23;;;;;;;26.23;67.20;98516.96;130034;1090;113457;-58
2021/08/02 07:12:34;;;;;;;19.53;12.15;;;;;;;26.33;66.60;98519.05;130102;1090;22515;-58
2021/08/02 07:15:02;;;;;;;17.45;12.48;;;;;;;26.39;66.01;98521.12;129991;1090;114569;-59
2021/08/02 07:17:30;;;;;;;12.53;10.88;;;;;;;26.46;65.24;98525.14;130115;1089;22585;-59
2021/08/02 07:19:57;;;;;;;12.83;10.88;;;;;;;26.55;65.99;98522.80;130080;1090;22643;-59
2021/08/02 07:22:25;;;;;;;13.53;11.53;;;;;;;26.65;65.05;98524.88;129954;1089;114721;-60
2021/08/02 07:24:53;;;;;;;13.95;11.70;;;;;;;26.73;64.77;98529.31;130090;1090;22673;-59
2021/08/02 07:27:20;;;;;;;15.78;10.68;;;;;;;26.81;64.19;98535.77;129982;1090;114296;-59
2021/08/02 07:29:50;;;;;;;15.53;10.73;;;;;;;26.88;63.56;98538.59;130077;1090;23217;-59
2021/08/02 07:32:17;;;;;;;12.08;9.28;;;;;;;26.94;63.06;98540.67;130105;1088;22540;-59
2021/08/02 07:34:44;;;;;;;12.73;10.33;;;;;;;27.00;63.11;98536.29;130017;1090;114751;-59
2021/08/02 07:37:12;;;;;;;12.28;9.73;;;;;;;27.07;63.08;98553.12;130090;1088;22569;-59
2021/08/02 07:39:40;;;;;;;17.30;10.33;;;;;;;27.16;62.98;98549.16;130039;1089;114806;-64
2021/08/02 07:42:07;;;;;;;14.20;9.58;;;;;;;27.25;61.79;98542.03;130109;1089;22515;-64
2021/08/02 07:44:35;;;;;;;22.08;10.08;;;;;;;27.34;62.04;98552.84;130036;1090;114352;-64
2021/08/02 07:47:03;;;;;;;16.10;9.18;;;;;;;27.43;61.95;98553.27;130101;1090;23186;-64
2021/08/02 07:49:30;;;;;;;11.18;9.53;;;;;;;27.53;60.98;98548.92;130125;1090;23400;-64
2021/08/02 07:51:58;;;;;;;11.20;8.88;;;;;;;27.62;60.16;98550.17;130005;1090;114019;-64
2021/08/02 07:54:25;;;;;;;13.55;8.68;;;;;;;27.70;60.58;98551.02;130124;1090;22586;-64
2021/08/02 07:56:53;;;;;;;10.55;8.98;;;;;;;27.78;59.22;98547.02;130036;1090;113495;-65
2021/08/02 07:59:21;;;;;;;14.13;8.65;;;;;;;27.86;58.72;98551.43;130127;1090;22600;-64
2021/08/02 08:01:48;;;;;;;13.40;8.30;;;;;;;27.93;58.39;98547.86;130093;1089;23624;-64
2021/08/02 08:04:16;;;;;;;16.08;7.85;;;;;;;27.99;58.51;98555.45;130033;1090;114079;-65
2021/08/02 08:06:46;;;;;;;22.95;9.73;;;;;;;28.05;57.14;98559.47;130037;1090;22596;-64
2021/08/02 08:09:13;;;;;;;17.63;9.03;;;;;;;28.09;57.83;98567.89;130001;1090;113994;-65
2021/08/02 08:11:44;;;;;;;15.28;8.78;;;;;;;28.14;57.77;98564.67;130098;1090;23146;-64
2021/08/02 08:14:11;;;;;;;12.63;7.65;;;;;;;28.18;56.93;98564.69;130110;1090;23498;-64
2021/08/02 08:16:39;;;;;;;12.05;8.18;;;;;;;28.24;55.98;98577.14;130010;1090;114048;-65
2021/08/02 08:19:07;;;;;;;14.73;7.83;;;;;;;28.30;56.97;98561.52;130032;1090;22683;-64
2021/08/02 08:21:36;;;;;;;19.73;7.73;;;;;;;28.36;55.92;98557.13;130020;1090;114773;-64
2021/08/02 08:24:06;;;;;;;9.53;7.48;;;;;;;28.41;55.25;98554.74;130118;1090;22531;-64
2021/08/02 08:26:35;;;;;;;8.60;6.50;;;;;;;28.47;55.17;98558.73;130011;1089;114190;-65
2021/08/02 08:29:03;;;;;;;9.70;5.83;;;;;;;28.52;53.53;98553.93;130122;1089;22523;-65
2021/08/02 08:31:31;;;;;;;14.45;6.13;;;;;;;28.57;52.41;98559.14;130102;1090;23158;-64
2021/08/02 08:33:59;;;;;;;9.85;6.33;;;;;;;28.60;51.66;98559.12;130015;1090;113851;-64
2021/08/02 08:36:32;;;;;;;15.88;6.38;;;;;;;28.66;51.44;98565.13;130108;1090;22569;-64
2021/08/02 08:38:59;;;;;;;10.25;5.78;;;;;;;28.70;51.38;98560.33;129971;1089;114128;-65
2021/08/02 08:41:27;;;;;;;14.93;6.53;;;;;;;28.71;51.49;98567.54;130141;1090;24067;-59
2021/08/02 08:43:55;;;;;;;12.53;5.95;;;;;;;28.73;50.65;98556.70;130092;1090;22557;-61
2021/08/02 08:46:23;;;;;;;11.10;5.83;;;;;;;28.75;51.61;98555.09;129993;1090;113945;-60
2021/08/02 08:48:52;;;;;;;9.98;5.93;;;;;;;28.80;51.30;98560.34;130133;1090;22576;-60
2021/08/02 08:51:21;;;;;;;14.08;7.78;;;;;;;28.87;50.74;98558.70;129994;1089;114418;-59
2021/08/02 08:53:49;;;;;;;13.58;6.18;;;;;;;28.91;50.72;98562.31;130115;1089;23352;-61
2021/08/02 08:56:17;;;;;;;15.78;6.20;;;;;;;28.94;51.52;98553.90;130085;1090;22991;-60
2021/08/02 08:58:44;;;;;;;11.90;5.78;;;;;;;29.00;51.43;98563.48;129968;1090;113764;-60
2021/08/02 09:01:12;;;;;;;15.68;6.10;;;;;;;29.06;50.97;98553.46;130091;1089;23283;-59
2021/08/02 09:04:02;;;;;;;11.75;6.28;;;;;;;29.12;50.65;98557.47;130029;1090;116001;-60
2021/08/02 09:06:29;;;;;;;17.48;6.60;;;;;;;29.19;50.33;98551.81;130081;1089;22626;-60
2021/08/02 09:08:57;;;;;;;81.13;11.25;;;;;;;29.24;49.63;98561.03;129964;1089;114449;-60
2021/08/02 09:11:25;;;;;;;22.55;7.25;;;;;;;29.24;48.86;98555.42;130130;1090;22683;-60
2021/08/02 09:13:53;;;;;;;14.45;6.05;;;;;;;29.20;48.72;98555.42;130132;1090;22649;-60
2021/08/02 09:16:25;;;;;;;9.50;5.43;;;;;;;29.18;49.77;98561.44;130008;1090;113861;-60
2021/08/02 09:19:02;;;;;;;13.65;6.85;;;;;;;29.18;50.00;98560.64;130083;1090;22574;-60
2021/08/02 09:21:46;;;;;;;11.98;6.00;;;;;;;29.23;50.93;98567.84;129968;1090;113834;-60
2021/08/02 09:24:15;;;;;;;11.53;6.05;;;;;;;29.29;49.86;98560.63;130094;1090;22679;-60
2021/08/02 09:26:43;;;;;;;10.93;5.73;;;;;;;29.34;50.46;98565.80;130000;1090;114610;-60
2021/08/02 09:29:11;;;;;;;14.80;6.55;;;;;;;29.37;49.78;98571.41;130090;1090;22542;-61
2021/08/02 09:31:48;;;;;;;14.85;6.93;;;;;;;29.40;49.00;98578.24;130100;1090;22590;-60
2021/08/02 09:34:16;;;;;;;8.95;6.65;;;;;;;29.36;49.41;98577.42;130036;1089;114302;-60
2021/08/02 09:36:46;;;;;;;11.00;6.43;;;;;;;29.32;48.89;98582.23;130103;1090;23639;-60
2021/08/02 09:39:15;;;;;;;10.58;6.15;;;;;;;29.28;49.29;98578.66;130013;1090;114130;-64
2021/08/02 09:41:43;;;;;;;16.18;6.13;;;;;;;29.24;49.94;98584.28;130112;1090;22508;-65
2021/08/02 09:44:18;;;;;;;10.70;6.83;;;;;;;29.22;50.07;98583.88;130132;1090;22644;-64
2021/08/02 09:46:54;;;;;;;11.05;5.55;;;;;;;29.19;50.04;98581.88;129992;1090;113671;-65
2021/08/02 09:49:22;;;;;;;13.73;6.35;;;;;;;29.12;49.50;98582.72;130136;1090;22555;-65
2021/08/02 09:51:50;;;;;;;15.30;6.28;;;;;;;29.06;50.16;98577.91;130006;1090;113966;-65
2021/08/02 09:54:35;;;;;;;20.00;7.15;;;;;;;28.99;49.81;98595.56;130098;1089;22601;-64
2021/08/02 09:57:05;;;;;;;15.35;6.65;;;;;;;28.89;49.93;98596.36;130001;1090;114017;-64
2021/08/02 09:59:34;;;;;;;12.98;6.48;;;;;;;28.83;50.82;98597.99;130114;1090;22666;-65
2021/08/02 10:02:01;;;;;;;17.40;6.38;;;;;;;28.78;50.67;98595.55;130091;1090;22562;-64
2021/08/02 10:04:31;;;;;;;12.23;6.30;;;;;;;28.72;50.58;98606.36;129996;1090;114114;-64
2021/08/02 10:07:07;;;;;;;12.15;6.13;;;;;;;28.69;51.03;98612.79;130075;1089;23057;-65
2021/08/02 10:09:37;;;;;;;16.38;5.95;;;;;;;28.68;50.73;98618.80;129983;1090;114175;-65
2021/08/02 10:12:05;;;;;;;11.93;5.05;;;;;;;28.65;50.83;98616.79;130136;1090;22693;-64
2021/08/02 10:14:33;;;;;;;12.75;6.68;;;;;;;28.61;50.34;98613.17;130023;1090;114265;-65
2021/08/02 10:17:08;;;;;;;7.68;5.55;;;;;;;28.58;51.14;98623.18;130095;1088;22573;-64
2021/08/02 10:19:37;;;;;;;13.50;5.75;;;;;;;28.58;51.50;98620.38;130109;1090;23837;-64
2021/08/02 10:22:05;;;;;;;11.20;6.75;;;;;;;28.62;51.87;98621.19;129982;1090;114005;-65
2021/08/02 10:24:33;;;;;;;10.38;5.25;;;;;;;28.67;50.98;98622.80;130087;1090;22744;-67
2021/08/02 10:27:02;;;;;;;19.15;6.98;;;;;;;28.71;50.36;98626.41;130048;1090;114382;-64
2021/08/02 10:29:39;;;;;;;12.98;6.08;;;;;;;28.73;49.74;98627.59;130097;1090;23507;-65
2021/08/02 10:32:06;;;;;;;21.35;6.75;;;;;;;28.73;49.60;98632.39;130072;1089;22660;-64
2021/08/02 10:34:34;;;;;;;15.90;5.08;;;;;;;28.68;49.40;98624.41;130000;1090;114577;-64
2021/08/02 10:37:05;;;;;;;11.75;4.95;;;;;;;28.71;49.18;98638.40;130093;1090;22812;-64
2021/08/02 10:39:34;;;;;;;13.93;6.27;;;;;;;28.70;50.08;98628.41;129442;1090;115541;-60
2021/08/02 10:42:08;;;;;;;12.35;4.90;;;;;;;28.71;50.58;98629.98;130158;1090;22668;-61
2021/08/02 10:44:56;;;;;;;15.68;4.53;;;;;;;28.76;50.61;98621.19;130023;1089;114785;-60
2021/08/02 10:47:35;;;;;;;8.73;4.08;;;;;;;28.76;50.26;98629.59;130112;1089;22733;-60
2021/08/02 10:50:03;;;;;;;11.78;4.30;;;;;;;28.77;49.99;98624.79;130110;1090;22646;-60
2021/08/02 10:52:31;;;;;;;10.98;4.65;;;;;;;28.79;50.46;98625.22;129979;1088;113906;-60
2021/08/02 10:54:58;;;;;;;9.55;4.63;;;;;;;28.82;49.44;98642.05;130092;1090;22565;-60
2021/08/02 10:57:41;;;;;;;9.40;4.20;;;;;;;28.85;49.71;98638.42;130001;1089;113922;-60
2021/08/02 11:00:19;;;;;;;19.10;5.88;;;;;;;28.88;49.61;98647.24;130115;1090;22540;-60
2021/08/02 11:02:51;;;;;;;10.78;4.55;;;;;;;28.89;49.32;98638.42;130009;1090;114625;-60
2021/08/02 11:05:20;;;;;;;7.18;4.30;;;;;;;28.92;49.41;98636.83;130145;1089;22533;-60
2021/08/02 11:07:48;;;;;;;14.83;5.90;;;;;;;28.95;49.77;98650.86;130135;1090;22520;-59
2021/08/02 11:10:16;;;;;;;11.75;5.50;;;;;;;29.01;49.08;98637.21;129997;1090;113849;-60
2021/08/02 11:12:45;;;;;;;8.90;4.90;;;;;;;29.01;49.51;98642.81;130117;1089;22557;-60
2021/08/02 11:15:14;;;;;;;7.93;4.88;;;;;;;29.02;50.10;98641.62;129960;1090;113732;-60
2021/08/02 11:17:49;;;;;;;10.83;4.75;;;;;;;29.02;50.25;98641.62;130118;1089;23038;-60
2021/08/02 11:20:17;;;;;;;;;;;;;;;28.99;48.94;98640.44;130105;1088;22571;-60
2021/08/02 11:22:49;;;;;;;15.28;5.43;;;;;;;28.95;49.50;98628.42;130031;1089;100063;-61